Time;durP1;ratioP1;P1;durP2;ratioP2;P2;SDS_P1;SDS_P2;PMS_P1;PMS_P2;Temp;Humidity;BMP_temperature;BMP_pressure;BME280_temperature;BME280_humidity;BME280_pressure;Samples;Min_cycle;Max_cycle;Signal;HPM_P1;HPM_P2
2023/04/03 00:01:16;;;;;;;7.83;7.47;;;6.90;99.90;;;;;;5090057;28;20489;-79
2023/04/03 00:03:44;;;;;;;8.93;8.53;;;6.90;99.90;;;;;;5087980;28;20435;-79
2023/04/03 00:06:13;;;;;;;8.47;7.80;;;6.90;99.90;;;;;;5086208;28;21219;-80
2023/04/03 00:08:41;;;;;;;8.23;7.93;;;6.90;99.90;;;;;;5089472;28;20804;-78
2023/04/03 00:11:10;;;;;;;8.20;7.90;;;6.90;99.90;;;;;;5087832;28;20523;-79
2023/04/03 00:13:39;;;;;;;8.03;7.73;;;6.90;99.90;;;;;;5089570;28;20974;-80
2023/04/03 00:16:10;;;;;;;8.40;8.00;;;6.90;99.90;;;;;;5086838;28;20578;-78
2023/04/03 00:18:39;;;;;;;8.63;8.13;;;6.80;99.90;;;;;;5089998;28;20530;-78
2023/04/03 00:21:08;;;;;;;8.30;7.90;;;6.90;99.90;;;;;;5086743;28;20467;-78
2023/04/03 00:23:36;;;;;;;9.57;9.00;;;6.90;99.90;;;;;;5089465;28;20514;-77
2023/04/03 00:26:05;;;;;;;9.53;9.03;;;6.90;99.90;;;;;;5091329;28;20445;-79
2023/04/03 00:28:33;;;;;;;8.30;8.10;;;6.90;99.90;;;;;;5087796;28;20455;-77
2023/04/03 00:31:01;;;;;;;8.00;7.70;;;6.90;99.90;;;;;;5087943;28;20466;-80
2023/04/03 00:33:31;;;;;;;7.30;6.97;;;6.90;99.90;;;;;;5089968;28;20463;-77
2023/04/03 00:35:59;;;;;;;7.73;7.53;;;6.80;99.90;;;;;;5088372;28;20540;-76
2023/04/03 00:38:27;;;;;;;8.20;7.90;;;6.80;99.90;;;;;;5088127;28;21041;-80
2023/04/03 00:40:55;;;;;;;8.60;8.00;;;6.80;99.90;;;;;;5087699;28;20465;-79
2023/04/03 00:43:26;;;;;;;7.80;7.57;;;6.80;99.90;;;;;;5088802;28;20483;-79
2023/04/03 00:45:56;;;;;;;8.27;7.97;;;6.80;99.90;;;;;;5087851;28;20891;-78
2023/04/03 00:48:28;;;;;;;7.97;7.67;;;6.80;99.90;;;;;;5090157;28;20491;-76
2023/04/03 00:50:58;;;;;;;8.17;7.90;;;6.80;99.90;;;;;;5084281;28;20464;-77
2023/04/03 00:53:30;;;;;;;7.67;7.27;;;6.80;99.90;;;;;;5086852;28;20479;-77
2023/04/03 00:55:59;;;;;;;7.70;7.40;;;6.80;99.90;;;;;;5086086;28;20454;-79
2023/04/03 00:58:34;;;;;;;8.20;8.00;;;6.70;99.90;;;;;;5087748;28;20462;-77
2023/04/03 01:01:07;;;;;;;8.03;7.80;;;6.70;99.90;;;;;;5083723;28;20564;-78
2023/04/03 01:03:36;;;;;;;7.47;7.13;;;6.70;99.90;;;;;;5086539;28;20480;-78
2023/04/03 01:06:06;;;;;;;7.43;7.23;;;6.60;99.90;;;;;;5085319;28;20451;-76
2023/04/03 01:08:35;;;;;;;8.10;7.63;;;6.70;99.90;;;;;;5081655;28;20465;-78
2023/04/03 01:11:03;;;;;;;8.00;7.40;;;6.60;99.90;;;;;;5083510;28;20469;-78
2023/04/03 01:13:33;;;;;;;7.50;7.30;;;6.60;99.90;;;;;;5087958;28;20462;-78
2023/04/03 01:16:03;;;;;;;7.40;7.20;;;6.70;99.90;;;;;;5081575;28;20446;-78
2023/04/03 01:18:33;;;;;;;7.80;7.40;;;6.70;99.90;;;;;;5084528;28;20511;-80
2023/04/03 01:21:31;;;;;;;7.67;7.27;;;6.70;99.90;;;;;;5088197;28;20478;-76
2023/04/03 01:24:15;;;;;;;7.67;7.37;;;6.60;99.90;;;;;;5087453;28;20505;-78
2023/04/03 01:26:43;;;;;;;7.70;7.30;;;6.60;99.90;;;;;;5087697;28;21014;-76
2023/04/03 01:29:11;;;;;;;6.73;6.43;;;6.60;99.90;;;;;;5085222;28;20566;-79
2023/04/03 01:31:50;;;;;;;7.17;6.90;;;6.50;99.90;;;;;;5087945;28;20526;-78
2023/04/03 01:34:19;;;;;;;7.37;7.13;;;6.60;99.90;;;;;;5085454;28;20461;-79
2023/04/03 01:36:47;;;;;;;7.53;7.33;;;6.50;99.90;;;;;;5088244;28;20507;-79
2023/04/03 01:39:15;;;;;;;8.23;7.73;;;6.50;99.90;;;;;;5087574;28;20446;-79
2023/04/03 01:41:44;;;;;;;8.23;7.80;;;6.50;99.90;;;;;;5090073;28;20482;-78
2023/04/03 01:44:13;;;;;;;7.47;7.10;;;6.50;99.90;;;;;;5087650;28;20484;-77
2023/04/03 01:46:42;;;;;;;7.10;6.90;;;6.40;99.90;;;;;;5088863;28;20462;-80
2023/04/03 01:49:11;;;;;;;8.00;7.60;;;6.50;99.90;;;;;;5086680;28;20454;-78
2023/04/03 01:51:40;;;;;;;7.40;6.90;;;6.40;99.90;;;;;;5087184;28;20474;-79
2023/04/03 01:54:08;;;;;;;8.30;7.80;;;6.40;99.90;;;;;;5088167;28;20472;-77
2023/04/03 01:56:36;;;;;;;7.40;7.20;;;6.40;99.90;;;;;;5089811;28;20518;-75
2023/04/03 01:59:04;;;;;;;7.10;6.90;;;6.40;99.90;;;;;;5085453;28;20453;-78
2023/04/03 02:01:32;;;;;;;7.23;6.93;;;6.40;99.90;;;;;;5085123;28;20470;-77
2023/04/03 02:04:00;;;;;;;7.13;6.77;;;6.40;99.90;;;;;;5084711;28;20491;-78
2023/04/03 02:06:30;;;;;;;7.17;6.87;;;6.40;99.90;;;;;;5080396;28;20493;-78
2023/04/03 02:08:58;;;;;;;6.80;6.40;;;6.30;99.90;;;;;;5080177;28;20449;-79
2023/04/03 02:11:26;;;;;;;7.37;7.07;;;6.30;99.90;;;;;;5088944;28;20534;-79
2023/04/03 02:13:54;;;;;;;6.65;6.55;;;6.30;99.90;;;;;;5088906;28;20446;-80
2023/04/03 02:16:22;;;;;;;7.30;7.10;;;6.20;99.90;;;;;;5085732;28;20200;-80
2023/04/03 02:18:50;;;;;;;7.77;7.33;;;6.20;99.90;;;;;;5088208;28;20460;-79
2023/04/03 02:21:19;;;;;;;7.60;7.27;;;6.20;99.90;;;;;;5085125;28;20476;-76
2023/04/03 02:23:48;;;;;;;7.10;6.75;;;6.20;99.90;;;;;;5088702;28;20481;-80
2023/04/03 02:26:17;;;;;;;7.47;7.17;;;6.20;99.90;;;;;;5086299;28;20192;-82
2023/04/03 02:28:45;;;;;;;8.03;7.73;;;6.10;99.90;;;;;;5087402;28;20442;-78
2023/04/03 02:31:14;;;;;;;7.20;6.90;;;6.10;99.90;;;;;;5086697;28;20465;-79
2023/04/03 02:33:42;;;;;;;7.90;7.40;;;6.10;99.90;;;;;;5088662;28;20450;-78
2023/04/03 02:36:11;;;;;;;7.00;6.70;;;6.10;99.90;;;;;;5089094;28;20509;-78
2023/04/03 02:38:39;;;;;;;7.57;7.20;;;6.10;99.90;;;;;;5083612;28;20481;-79
2023/04/03 02:41:10;;;;;;;7.32;7.03;;;6.00;99.90;;;;;;5086540;28;20481;-80
2023/04/03 02:43:39;;;;;;;7.43;7.03;;;6.00;99.90;;;;;;5090282;28;20991;-77
2023/04/03 02:46:08;;;;;;;7.72;7.13;;;6.00;99.90;;;;;;5090877;28;20282;-79
2023/04/03 02:48:37;;;;;;;7.80;7.40;;;6.00;99.90;;;;;;5091107;28;20199;-79
2023/04/03 02:51:06;;;;;;;8.00;7.50;;;6.00;99.90;;;;;;5089349;28;20314;-79
2023/04/03 02:53:34;;;;;;;7.87;7.57;;;6.00;99.90;;;;;;5092977;28;20459;-78
2023/04/03 02:56:02;;;;;;;7.60;7.40;;;6.00;99.90;;;;;;5090710;28;20462;-78
2023/04/03 02:58:32;;;;;;;7.60;7.30;;;6.00;99.90;;;;;;5088423;28;20231;-78
2023/04/03 03:01:01;;;;;;;7.57;7.37;;;6.00;99.90;;;;;;5091118;28;20469;-76
2023/04/03 03:03:29;;;;;;;8.10;7.80;;;6.10;99.90;;;;;;5092454;28;21025;-75
2023/04/03 03:06:04;;;;;;;8.30;7.80;;;6.10;99.90;;;;;;5093009;28;20835;-80
2023/04/03 03:08:33;;;;;;;8.37;8.07;;;6.00;99.90;;;;;;5081096;28;20462;-79
2023/04/03 03:11:01;;;;;;;6.77;6.60;;;6.10;99.90;;;;;;5086003;28;20470;-78
2023/04/03 03:13:29;;;;;;;7.13;6.90;;;6.00;99.90;;;;;;5090055;28;20443;-75
2023/04/03 03:15:59;;;;;;;8.30;7.97;;;6.10;99.90;;;;;;5089143;28;20798;-79
2023/04/03 03:18:27;;;;;;;7.27;7.07;;;6.10;99.90;;;;;;5089559;28;20490;-78
2023/04/03 03:20:57;;;;;;;7.43;7.13;;;6.00;99.90;;;;;;5090226;28;20865;-80
2023/04/03 03:23:26;;;;;;;7.90;7.70;;;6.00;99.90;;;;;;5089768;28;20671;-77
2023/04/03 03:25:57;;;;;;;7.70;7.40;;;6.00;99.90;;;;;;5089928;28;20450;-78
2023/04/03 03:28:25;;;;;;;7.53;7.33;;;6.10;99.90;;;;;;5089136;28;20520;-79
2023/04/03 03:30:54;;;;;;;7.88;7.53;;;6.10;99.90;;;;;;5079917;28;20544;-77
2023/04/03 03:33:23;;;;;;;8.03;7.73;;;6.00;99.90;;;;;;5089820;28;20222;-77
2023/04/03 03:35:52;;;;;;;7.70;7.15;;;5.90;99.90;;;;;;5090060;28;20458;-76
2023/04/03 03:38:21;;;;;;;7.80;7.50;;;6.00;99.90;;;;;;5088401;28;20460;-78
2023/04/03 03:40:49;;;;;;;7.25;6.90;;;6.00;99.90;;;;;;5082249;28;20226;-77
2023/04/03 03:43:18;;;;;;;8.20;7.90;;;6.00;99.90;;;;;;5090691;28;20757;-78
2023/04/03 03:45:51;;;;;;;7.60;7.37;;;6.00;99.90;;;;;;5087187;28;20886;-79
2023/04/03 03:48:20;;;;;;;7.57;7.38;;;6.00;99.90;;;;;;5091106;28;20460;-76
2023/04/03 03:50:50;;;;;;;8.30;7.80;;;6.00;99.90;;;;;;5086437;28;20219;-77
2023/04/03 03:53:19;;;;;;;8.00;7.70;;;6.00;99.90;;;;;;5084206;28;20831;-78
2023/04/03 03:55:47;;;;;;;7.77;7.50;;;6.00;99.90;;;;;;5086464;28;21017;-78
2023/04/03 03:58:15;;;;;;;7.60;7.30;;;6.00;99.90;;;;;;5089364;28;20494;-76
2023/04/03 04:00:43;;;;;;;8.05;7.65;;;6.00;99.90;;;;;;5083267;28;20485;-78
2023/04/03 04:03:11;;;;;;;7.73;7.43;;;6.00;99.90;;;;;;5086206;28;20209;-78
2023/04/03 04:05:39;;;;;;;7.50;7.10;;;6.00;99.90;;;;;;5087726;28;20478;-77
2023/04/03 04:08:09;;;;;;;6.90;6.70;;;5.90;99.90;;;;;;5086867;28;20192;-78
2023/04/03 04:10:39;;;;;;;7.33;7.03;;;6.00;99.90;;;;;;5085675;28;20493;-78
2023/04/03 04:13:07;;;;;;;7.03;6.83;;;6.00;99.90;;;;;;5088666;28;21107;-78
2023/04/03 04:15:36;;;;;;;7.90;7.50;;;6.00;99.90;;;;;;5088863;28;20438;-77
2023/04/03 04:18:04;;;;;;;7.68;7.38;;;6.00;99.90;;;;;;5087840;28;20460;-74
2023/04/03 04:20:33;;;;;;;7.60;7.30;;;6.00;99.90;;;;;;5082767;28;20712;-79
2023/04/03 04:23:01;;;;;;;6.93;6.72;;;6.00;99.90;;;;;;5088353;28;20253;-77
2023/04/03 04:25:31;;;;;;;8.37;7.87;;;6.00;99.90;;;;;;5089180;28;20216;-78
2023/04/03 04:27:59;;;;;;;7.63;7.33;;;6.00;99.90;;;;;;5086577;28;20492;-79
2023/04/03 04:30:27;;;;;;;7.70;7.40;;;6.00;99.90;;;;;;5085704;28;21067;-78
2023/04/03 04:32:55;;;;;;;7.73;7.40;;;6.00;99.90;;;;;;5081527;28;20507;-77
2023/04/03 04:35:24;;;;;;;7.38;6.95;;;6.00;99.90;;;;;;5079314;28;20473;-77
2023/04/03 04:37:52;;;;;;;7.50;7.10;;;6.00;99.90;;;;;;5081982;28;20204;-79
2023/04/03 04:40:20;;;;;;;7.70;7.40;;;6.00;99.90;;;;;;5082574;28;20484;-79
2023/04/03 04:42:50;;;;;;;7.60;7.30;;;6.00;99.90;;;;;;5081713;28;20858;-76
2023/04/03 04:45:18;;;;;;;6.70;6.50;;;6.00;99.90;;;;;;5083034;28;20581;-80
2023/04/03 04:47:46;;;;;;;6.45;6.25;;;6.00;99.90;;;;;;5079718;28;20453;-79
2023/04/03 04:50:14;;;;;;;6.70;6.50;;;6.10;99.90;;;;;;5079477;28;20220;-77
2023/04/03 04:52:43;;;;;;;7.03;6.73;;;6.10;99.90;;;;;;5080269;28;20667;-77
2023/04/03 04:55:11;;;;;;;7.60;7.10;;;6.10;99.90;;;;;;5079501;28;20512;-78
2023/04/03 04:57:39;;;;;;;7.30;7.10;;;6.10;99.90;;;;;;5082645;28;20450;-77
2023/04/03 05:00:10;;;;;;;9.97;9.17;;;6.10;99.90;;;;;;5077801;28;20509;-77
2023/04/03 05:02:38;;;;;;;7.67;7.37;;;6.10;99.90;;;;;;5075455;28;20453;-76
2023/04/03 05:05:08;;;;;;;7.83;7.53;;;6.00;99.90;;;;;;5075610;28;20512;-79
2023/04/03 05:07:36;;;;;;;7.00;6.80;;;6.00;99.90;;;;;;5083313;28;20461;-78
2023/04/03 05:10:07;;;;;;;6.90;6.70;;;6.10;99.90;;;;;;5077481;28;20482;-76
2023/04/03 05:12:35;;;;;;;6.70;6.50;;;6.10;99.90;;;;;;5087863;28;20790;-79
2023/04/03 05:15:03;;;;;;;6.77;6.57;;;6.10;99.90;;;;;;5086055;28;20196;-78
2023/04/03 05:17:33;;;;;;;7.07;6.67;;;6.10;99.90;;;;;;5087838;28;20453;-76
2023/04/03 05:20:01;;;;;;;7.30;7.00;;;6.10;99.90;;;;;;5080337;28;20466;-76
2023/04/03 05:22:29;;;;;;;7.60;7.30;;;6.10;99.90;;;;;;5087800;28;20954;-79
2023/04/03 05:24:57;;;;;;;6.90;6.70;;;6.20;99.90;;;;;;5089955;28;20219;-78
2023/04/03 05:27:27;;;;;;;6.23;6.03;;;6.20;99.90;;;;;;5092186;28;20950;-77
2023/04/03 05:29:56;;;;;;;5.93;5.73;;;6.20;99.90;;;;;;5090086;28;20943;-78
2023/04/03 05:32:26;;;;;;;6.23;6.03;;;6.20;99.90;;;;;;5089288;28;20453;-77
2023/04/03 05:34:55;;;;;;;6.20;6.00;;;6.20;99.90;;;;;;5089652;28;20444;-78
2023/04/03 05:37:25;;;;;;;5.80;5.70;;;6.20;99.90;;;;;;5087751;28;20479;-77
2023/04/03 05:39:54;;;;;;;6.87;6.67;;;6.10;99.90;;;;;;5087639;28;20514;-79
2023/04/03 05:42:22;;;;;;;5.90;5.70;;;6.10;99.90;;;;;;5087821;28;20847;-78
2023/04/03 05:44:50;;;;;;;5.63;5.40;;;6.20;99.90;;;;;;5088044;28;20204;-78
2023/04/03 05:47:19;;;;;;;5.53;5.40;;;6.20;99.90;;;;;;5087883;28;20768;-78
2023/04/03 05:49:47;;;;;;;5.53;5.33;;;6.20;99.90;;;;;;5087447;28;20486;-78
2023/04/03 05:52:22;;;;;;;5.60;5.40;;;6.20;99.90;;;;;;5086618;28;20514;-77
2023/04/03 05:54:50;;;;;;;5.60;5.40;;;6.20;99.90;;;;;;5090002;28;20449;-78
2023/04/03 05:57:19;;;;;;;5.57;5.37;;;6.30;99.90;;;;;;5090868;28;20454;-78
2023/04/03 05:59:48;;;;;;;5.10;5.00;;;6.30;99.90;;;;;;5088920;28;20461;-79
2023/04/03 06:02:18;;;;;;;6.00;5.80;;;6.30;99.90;;;;;;5090022;28;20469;-78
2023/04/03 06:04:47;;;;;;;5.70;5.47;;;6.40;99.90;;;;;;5088492;28;20225;-76
2023/04/03 06:07:20;;;;;;;5.53;5.43;;;6.50;99.90;;;;;;5086084;28;20560;-77
2023/04/03 06:09:49;;;;;;;5.60;5.40;;;6.50;99.90;;;;;;5084303;28;20453;-79
2023/04/03 06:12:17;;;;;;;5.93;5.67;;;6.60;99.90;;;;;;5087143;28;20538;-80
2023/04/03 06:14:45;;;;;;;6.10;5.80;;;6.70;99.90;;;;;;5085398;28;20519;-79
2023/04/03 06:17:13;;;;;;;5.60;5.40;;;6.90;99.90;;;;;;5081020;28;20511;-80
2023/04/03 06:19:42;;;;;;;6.00;5.53;;;6.90;99.90;;;;;;5084437;28;20459;-79
2023/04/03 06:22:11;;;;;;;5.77;5.40;;;6.80;99.90;;;;;;5089101;28;20802;-81
2023/04/03 06:24:41;;;;;;;6.33;5.90;;;6.80;99.90;;;;;;5091277;28;21142;-78
2023/04/03 06:27:11;;;;;;;5.70;5.50;;;6.80;99.90;;;;;;5087826;28;20958;-79
2023/04/03 06:29:39;;;;;;;7.07;6.77;;;6.80;99.90;;;;;;5087585;28;20523;-80
2023/04/03 06:32:07;;;;;;;8.47;7.97;;;6.70;99.90;;;;;;5084301;28;20506;-81
2023/04/03 06:34:36;;;;;;;9.45;8.85;;;6.70;99.90;;;;;;5076705;28;20598;-78
2023/04/03 06:37:04;;;;;;;7.50;7.10;;;6.70;99.90;;;;;;5085674;28;20690;-79
2023/04/03 06:39:32;;;;;;;7.23;6.93;;;6.80;99.90;;;;;;5089176;28;20464;-78
2023/04/03 06:42:01;;;;;;;7.07;6.70;;;6.80;99.90;;;;;;5090852;28;20477;-75
2023/04/03 06:44:30;;;;;;;6.40;6.10;;;6.90;99.90;;;;;;5085374;28;20446;-76
2023/04/03 06:46:58;;;;;;;7.20;6.90;;;7.00;99.90;;;;;;5090008;28;20481;-80
2023/04/03 06:49:26;;;;;;;6.40;6.17;;;7.10;99.90;;;;;;5089167;28;20454;-79
2023/04/03 06:51:54;;;;;;;6.37;6.13;;;7.20;99.90;;;;;;5090334;28;20466;-79
2023/04/03 06:54:22;;;;;;;5.93;5.73;;;7.20;99.90;;;;;;5090398;28;20458;-80
2023/04/03 06:56:51;;;;;;;6.30;6.00;;;7.20;99.90;;;;;;5092901;28;20544;-80
2023/04/03 06:59:20;;;;;;;6.13;5.93;;;7.30;99.90;;;;;;5092481;28;20457;-76
2023/04/03 07:01:48;;;;;;;6.07;5.87;;;7.30;99.90;;;;;;5087635;28;20489;-79
2023/04/03 07:04:17;;;;;;;6.73;6.40;;;7.30;99.90;;;;;;5088431;28;20453;-78
2023/04/03 07:06:46;;;;;;;7.47;6.87;;;7.40;99.90;;;;;;5089077;28;20577;-79
2023/04/03 07:09:15;;;;;;;10.33;9.57;;;7.30;99.90;;;;;;5090928;28;20457;-77
2023/04/03 07:11:43;;;;;;;13.57;11.57;;;7.30;99.90;;;;;;5089736;28;20478;-81
2023/04/03 07:14:12;;;;;;;63.90;35.00;;;7.40;99.90;;;;;;5090537;28;20455;-78
2023/04/03 07:16:41;;;;;;;23.73;16.77;;;7.40;99.90;;;;;;5090206;28;20465;-77
2023/04/03 07:19:09;;;;;;;15.40;12.40;;;7.40;99.90;;;;;;5075266;28;20454;-80
2023/04/03 07:21:38;;;;;;;8.90;8.40;;;7.40;99.90;;;;;;5085733;28;20477;-80
2023/04/03 07:24:07;;;;;;;9.50;9.00;;;7.40;99.90;;;;;;5088668;28;20542;-79
2023/04/03 07:26:41;;;;;;;8.90;8.30;;;7.40;99.90;;;;;;5088835;28;20554;-80
2023/04/03 07:29:10;;;;;;;7.30;6.90;;;7.50;99.90;;;;;;5085868;28;20460;-80
2023/04/03 07:31:41;;;;;;;7.37;6.97;;;7.60;99.90;;;;;;5087793;28;20557;-78
2023/04/03 07:34:10;;;;;;;7.57;7.17;;;7.60;99.90;;;;;;5087611;28;20451;-80
2023/04/03 07:36:38;;;;;;;6.83;6.53;;;7.60;99.90;;;;;;5087294;28;20455;-78
2023/04/03 07:39:09;;;;;;;7.10;6.80;;;7.60;99.90;;;;;;5089779;28;20818;-78
2023/04/03 07:41:37;;;;;;;8.40;8.00;;;7.70;99.90;;;;;;5088550;28;20543;-79
2023/04/03 07:44:05;;;;;;;8.10;7.70;;;7.70;99.90;;;;;;5085494;28;20553;-78
2023/04/03 07:46:37;;;;;;;7.43;7.13;;;7.80;99.90;;;;;;5088230;28;20478;-80
2023/04/03 07:49:08;;;;;;;7.37;7.07;;;7.80;99.90;;;;;;5084801;28;20577;-79
2023/04/03 07:51:37;;;;;;;8.70;8.10;;;7.90;99.90;;;;;;5086159;28;20530;-76
2023/04/03 07:54:05;;;;;;;16.60;12.70;;;7.80;99.90;;;;;;5086734;28;20865;-76
2023/04/03 07:56:34;;;;;;;11.77;10.77;;;7.90;99.90;;;;;;5081971;28;20462;-79
2023/04/03 07:59:02;;;;;;;9.40;8.80;;;7.90;99.90;;;;;;5085573;28;20448;-77
2023/04/03 08:01:32;;;;;;;7.90;7.50;;;8.00;99.90;;;;;;5088197;28;21042;-79
2023/04/03 08:04:00;;;;;;;7.77;7.37;;;8.10;99.90;;;;;;5080316;28;20957;-79
2023/04/03 08:06:34;;;;;;;8.27;7.87;;;8.10;99.90;;;;;;5075381;28;20565;-76
2023/04/03 08:09:14;;;;;;;10.20;9.50;;;8.20;99.90;;;;;;5087506;28;20455;-76
2023/04/03 08:11:43;;;;;;;8.03;7.60;;;8.40;99.90;;;;;;5086466;28;20570;-77
2023/04/03 08:14:16;;;;;;;7.97;7.57;;;8.40;99.90;;;;;;5086221;28;20446;-78
2023/04/03 08:16:45;;;;;;;7.43;7.13;;;8.30;99.90;;;;;;5089208;28;20450;-79
2023/04/03 08:19:15;;;;;;;8.10;7.60;;;8.40;99.90;;;;;;5081478;28;20441;-78
2023/04/03 08:21:56;;;;;;;9.37;8.57;;;8.70;99.90;;;;;;5087672;28;20871;-77
2023/04/03 08:24:25;;;;;;;8.30;7.90;;;8.80;99.90;;;;;;5080700;28;20457;-78
2023/04/03 08:26:53;;;;;;;8.20;7.90;;;8.80;99.90;;;;;;5086002;28;20479;-77
2023/04/03 08:29:21;;;;;;;7.27;7.07;;;8.80;99.90;;;;;;5087526;28;20460;-78
2023/04/03 08:31:50;;;;;;;7.73;7.23;;;8.80;99.90;;;;;;5087018;28;20474;-80
2023/04/03 08:34:19;;;;;;;7.40;7.13;;;8.80;99.90;;;;;;5087612;28;20837;-79
2023/04/03 08:36:48;;;;;;;7.40;7.13;;;8.80;99.90;;;;;;5086557;28;20465;-79
2023/04/03 08:39:18;;;;;;;7.93;7.40;;;8.80;99.90;;;;;;5087831;28;20449;-78
2023/04/03 08:41:47;;;;;;;7.50;7.30;;;8.80;99.90;;;;;;5085928;28;20480;-78
2023/04/03 08:44:23;;;;;;;7.83;7.23;;;9.00;99.90;;;;;;5086586;28;20443;-78
2023/04/03 08:47:05;;;;;;;7.20;6.90;;;9.10;99.90;;;;;;5090811;28;20483;-79
2023/04/03 08:49:38;;;;;;;8.20;7.90;;;9.10;99.90;;;;;;5089075;28;20463;-78
2023/04/03 08:52:14;;;;;;;8.07;7.47;;;9.10;99.90;;;;;;5086441;28;20473;-80
2023/04/03 08:54:51;;;;;;;7.93;7.40;;;9.20;99.90;;;;;;5088583;28;20446;-79
2023/04/03 08:57:29;;;;;;;7.53;7.33;;;9.30;99.90;;;;;;5091244;28;20976;-79
2023/04/03 09:00:02;;;;;;;7.80;7.23;;;9.30;99.90;;;;;;5087955;28;20838;-79
2023/04/03 09:02:36;;;;;;;7.33;7.13;;;9.30;99.90;;;;;;5085343;28;21009;-78
2023/04/03 09:05:13;;;;;;;7.10;6.90;;;9.40;99.90;;;;;;5084751;28;20455;-78
2023/04/03 09:07:45;;;;;;;7.27;7.07;;;9.40;99.90;;;;;;5086329;28;20518;-77
2023/04/03 09:10:27;;;;;;;6.93;6.73;;;9.30;99.90;;;;;;5091050;28;20470;-80
2023/04/03 09:13:01;;;;;;;7.30;7.00;;;9.30;99.90;;;;;;5088625;28;20482;-80
2023/04/03 09:15:30;;;;;;;7.77;7.47;;;9.40;99.90;;;;;;5083435;28;20492;-78
2023/04/03 09:18:11;;;;;;;7.90;7.43;;;9.40;99.90;;;;;;5089369;28;20466;-79
2023/04/03 09:20:46;;;;;;;8.33;7.80;;;9.30;99.90;;;;;;5087527;28;20479;-78
2023/04/03 09:23:22;;;;;;;7.00;6.80;;;9.10;99.90;;;;;;5087451;28;20441;-76
2023/04/03 09:25:57;;;;;;;7.30;6.83;;;9.00;99.90;;;;;;5088466;28;20466;-79
2023/04/03 09:28:26;;;;;;;7.13;6.73;;;8.90;99.90;;;;;;5088703;28;20827;-77
2023/04/03 09:30:56;;;;;;;7.17;6.97;;;8.80;99.90;;;;;;5086723;28;20476;-79
2023/04/03 09:33:25;;;;;;;7.90;7.33;;;8.80;99.90;;;;;;5089014;28;20464;-78
2023/04/03 09:35:53;;;;;;;7.93;7.13;;;8.80;99.90;;;;;;5086258;28;20462;-79
2023/04/03 09:38:23;;;;;;;7.07;6.87;;;8.70;99.90;;;;;;5085105;28;20455;-80
2023/04/03 09:41:06;;;;;;;6.83;6.60;;;8.60;99.90;;;;;;5087683;28;20938;-78
2023/04/03 09:43:35;;;;;;;7.20;6.80;;;8.50;99.90;;;;;;5089192;28;20466;-80
2023/04/03 09:46:29;;;;;;;7.00;6.70;;;8.50;99.90;;;;;;5083932;28;20454;-80
2023/04/03 09:48:59;;;;;;;7.30;6.87;;;8.40;99.90;;;;;;5084115;28;20490;-79
2023/04/03 09:51:37;;;;;;;7.17;6.83;;;8.40;99.90;;;;;;5083531;28;20474;-81
2023/04/03 09:54:31;;;;;;;7.00;6.60;;;8.40;99.90;;;;;;5091409;28;20455;-79
2023/04/03 09:57:04;;;;;;;7.00;6.70;;;8.30;99.90;;;;;;5091237;28;20454;-80
2023/04/03 09:59:34;;;;;;;6.60;6.30;;;8.40;99.90;;;;;;5090239;28;20450;-79
2023/04/03 10:02:19;;;;;;;6.00;5.80;;;8.40;99.90;;;;;;5085789;28;20486;-79
2023/04/03 10:04:48;;;;;;;6.47;6.27;;;8.40;99.90;;;;;;5086196;28;21100;-79
2023/04/03 10:07:37;;;;;;;6.30;6.10;;;8.40;99.90;;;;;;5083774;28;20489;-79
2023/04/03 10:10:22;;;;;;;6.70;6.10;;;8.40;99.90;;;;;;5089698;28;20474;-77
2023/04/03 10:13:05;;;;;;;6.10;5.70;;;8.50;99.90;;;;;;5087779;28;20458;-77
2023/04/03 10:15:39;;;;;;;6.13;5.83;;;8.50;99.90;;;;;;5082835;28;20515;-80
2023/04/03 10:18:21;;;;;;;6.20;6.00;;;8.60;99.90;;;;;;5085937;28;20456;-78
2023/04/03 10:20:53;;;;;;;6.80;6.50;;;8.80;99.90;;;;;;5086715;28;21445;-83
2023/04/03 10:23:25;;;;;;;7.00;6.70;;;9.10;99.90;;;;;;5094576;28;20454;-81
2023/04/03 10:26:10;;;;;;;6.60;6.30;;;9.20;99.90;;;;;;5088183;28;20537;-78
2023/04/03 10:28:49;;;;;;;6.53;6.23;;;9.40;99.90;;;;;;5090495;28;21126;-78
2023/04/03 10:31:25;;;;;;;6.57;6.10;;;9.40;99.90;;;;;;5087752;28;20472;-80
2023/04/03 10:34:03;;;;;;;6.60;6.33;;;9.60;99.90;;;;;;5089341;28;21498;-79
2023/04/03 10:36:39;;;;;;;6.20;5.90;;;9.70;99.90;;;;;;5093262;28;20491;-80
2023/04/03 10:39:20;;;;;;;6.07;5.77;;;9.50;99.90;;;;;;5090387;28;20444;-79
2023/04/03 10:42:01;;;;;;;6.50;6.03;;;9.40;99.90;;;;;;5091374;28;20474;-77
2023/04/03 10:44:59;;;;;;;6.07;5.87;;;9.30;99.90;;;;;;5085381;28;20442;-80
2023/04/03 10:47:35;;;;;;;6.50;6.30;;;9.20;99.90;;;;;;5089750;28;20478;-79
2023/04/03 10:50:25;;;;;;;6.40;6.20;;;9.10;99.90;;;;;;5084179;28;20460;-81
2023/04/03 10:52:58;;;;;;;6.40;6.10;;;9.00;99.90;;;;;;5086564;28;20453;-78
2023/04/03 10:55:36;;;;;;;6.60;6.20;;;9.00;99.90;;;;;;5089184;28;20472;-79
2023/04/03 10:58:06;;;;;;;6.00;5.80;;;9.10;99.90;;;;;;5087948;28;20450;-79
2023/04/03 11:00:41;;;;;;;6.20;5.90;;;9.00;99.90;;;;;;5087974;28;20478;-80
2023/04/03 11:03:15;;;;;;;5.80;5.50;;;9.00;99.90;;;;;;5082496;28;20457;-77
2023/04/03 11:05:45;;;;;;;5.77;5.57;;;8.90;99.90;;;;;;5086533;28;20941;-78
2023/04/03 11:08:25;;;;;;;5.83;5.60;;;8.90;99.90;;;;;;5087914;28;20990;-79
2023/04/03 11:10:57;;;;;;;7.00;6.40;;;8.80;99.90;;;;;;5089949;28;20889;-77
2023/04/03 11:13:31;;;;;;;6.83;6.43;;;8.90;99.90;;;;;;5088408;28;20455;-80
2023/04/03 11:16:01;;;;;;;6.33;6.10;;;8.90;99.90;;;;;;5087875;28;20455;-77
2023/04/03 11:18:36;;;;;;;9.47;8.67;;;8.80;99.90;;;;;;5084149;28;20442;-78
2023/04/03 11:21:08;;;;;;;7.43;7.10;;;8.80;99.90;;;;;;5083244;28;20478;-78
2023/04/03 11:23:39;;;;;;;7.30;6.80;;;8.90;99.90;;;;;;5082120;28;20438;-79
2023/04/03 11:26:20;;;;;;;8.23;7.83;;;8.90;99.90;;;;;;5088090;28;20481;-77
2023/04/03 11:28:54;;;;;;;7.60;7.10;;;8.90;99.90;;;;;;5090036;28;20567;-77
2023/04/03 11:31:45;;;;;;;9.10;8.50;;;8.80;99.90;;;;;;5085270;28;21090;-80
2023/04/03 11:34:27;;;;;;;10.80;9.90;;;8.80;99.90;;;;;;5079816;28;20997;-78
2023/04/03 11:36:59;;;;;;;6.37;6.07;;;8.80;99.90;;;;;;5081263;28;20508;-76
2023/04/03 11:39:31;;;;;;;8.33;7.83;;;8.80;99.90;;;;;;5086916;28;20460;-79
2023/04/03 11:42:16;;;;;;;6.67;6.27;;;8.60;99.90;;;;;;5087362;28;20473;-80
2023/04/03 11:44:44;;;;;;;6.30;6.10;;;8.60;99.90;;;;;;5085091;28;20485;-81
2023/04/03 11:47:47;;;;;;;7.97;7.40;;;8.60;99.90;;;;;;5086355;28;20533;-80
2023/04/03 11:50:31;;;;;;;8.87;8.30;;;8.60;99.90;;;;;;5083064;28;20465;-79
2023/04/03 11:53:14;;;;;;;7.13;6.83;;;8.70;99.90;;;;;;5073649;28;20493;-80
2023/04/03 11:55:55;;;;;;;6.30;5.90;;;8.60;99.90;;;;;;5091703;28;20457;-77
2023/04/03 11:58:25;;;;;;;6.37;5.77;;;8.60;95.90;;;;;;5087402;28;20473;-79
2023/04/03 12:01:05;;;;;;;5.70;5.50;;;8.60;95.80;;;;;;5085814;28;20479;-78
2023/04/03 12:04:13;;;;;;;5.63;5.33;;;8.60;95.80;;;;;;5088219;28;20462;-79
2023/04/03 12:07:14;;;;;;;5.33;5.10;;;8.50;95.00;;;;;;5089385;28;20476;-80
2023/04/03 12:10:17;;;;;;;5.23;5.10;;;8.50;96.00;;;;;;5105651;28;20563;-77
2023/04/03 12:13:02;;;;;;;5.30;5.00;;;8.40;94.40;;;;;;5088524;28;20527;-78
2023/04/03 12:15:51;;;;;;;5.87;5.67;;;8.50;95.70;;;;;;5087737;28;20446;-78
2023/04/03 12:19:03;;;;;;;5.33;5.10;;;8.50;95.60;;;;;;5083005;28;20447;-80
2023/04/03 12:22:09;;;;;;;5.17;5.00;;;8.70;95.70;;;;;;5086635;28;20531;-80
2023/04/03 12:24:40;;;;;;;5.80;5.50;;;8.80;95.90;;;;;;5088088;28;20475;-80
2023/04/03 12:27:30;;;;;;;5.40;5.20;;;8.80;95.80;;;;;;5088934;28;20544;-78
2023/04/03 12:30:05;;;;;;;5.40;5.20;;;8.70;94.40;;;;;;5088924;28;20483;-77
2023/04/03 12:33:03;;;;;;;5.47;5.27;;;8.80;95.40;;;;;;5089414;28;20474;-79
2023/04/03 12:35:50;;;;;;;5.37;5.17;;;8.70;99.90;;;;;;5088444;28;20458;-78
2023/04/03 12:38:44;;;;;;;5.57;5.37;;;8.70;95.10;;;;;;5089176;28;21136;-76
2023/04/03 12:41:28;;;;;;;5.17;4.90;;;8.80;93.10;;;;;;5090119;28;20471;-78
2023/04/03 12:44:23;;;;;;;5.30;4.93;;;8.70;91.40;;;;;;5087405;28;20444;-79
2023/04/03 12:46:53;;;;;;;5.10;4.77;;;8.70;91.00;;;;;;5071626;28;20494;-79
2023/04/03 12:49:34;;;;;;;5.27;4.97;;;8.70;91.60;;;;;;5084407;28;20467;-75
2023/04/03 12:52:06;;;;;;;4.93;4.63;;;8.70;91.20;;;;;;5083454;28;20496;-78
2023/04/03 12:54:39;;;;;;;4.67;4.57;;;8.80;89.90;;;;;;5085124;28;20462;-79
2023/04/03 12:57:11;;;;;;;5.13;4.83;;;8.70;86.40;;;;;;5088682;28;20478;-78
2023/04/03 12:59:41;;;;;;;4.90;4.70;;;8.70;90.30;;;;;;5084206;28;20461;-78
2023/04/03 13:02:23;;;;;;;9.23;5.00;;;8.80;90.70;;;;;;5088291;28;20539;-80
2023/04/03 13:04:53;;;;;;;5.00;4.70;;;8.80;88.10;;;;;;5090106;28;21127;-79
2023/04/03 13:07:27;;;;;;;5.57;5.07;;;8.90;88.30;;;;;;5085639;28;20836;-76
2023/04/03 13:10:14;;;;;;;4.47;4.37;;;9.10;90.60;;;;;;5088231;28;21005;-79
2023/04/03 13:12:47;;;;;;;4.90;4.70;;;9.20;89.30;;;;;;5085133;28;20477;-77
2023/04/03 13:15:18;;;;;;;5.10;4.90;;;9.30;90.60;;;;;;5089010;28;20469;-79
2023/04/03 13:17:49;;;;;;;5.30;4.90;;;9.40;91.80;;;;;;5086748;28;20456;-80
2023/04/03 13:20:23;;;;;;;4.80;4.50;;;9.40;94.00;;;;;;5088678;28;20480;-76
2023/04/03 13:22:58;;;;;;;5.10;4.90;;;9.40;85.00;;;;;;5088210;28;20477;-78
2023/04/03 13:25:29;;;;;;;4.73;4.63;;;9.20;81.80;;;;;;5086835;28;20456;-77